Time;durP1;ratioP1;P1;durP2;ratioP2;P2;SDS_P1;SDS_P2;PMS_P1;PMS_P2;Temp;Humidity;BMP_temperature;BMP_pressure;BME280_temperature;BME280_humidity;BME280_pressure;Samples;Min_cycle;Max_cycle;Signal;HPM_P1;HPM_P2
2021/10/07 00:00:08;;;;;;;12.65;7.57;;;10.40;92.40;;;;;;4990249;28;20037;-70
2021/10/07 00:02:34;;;;;;;10.68;7.43;;;10.40;92.40;;;;;;4981058;28;20762;-70
2021/10/07 00:05:00;;;;;;;14.75;8.32;;;10.40;92.40;;;;;;4985208;28;20552;-70
2021/10/07 00:07:26;;;;;;;13.05;8.05;;;10.30;92.40;;;;;;4986040;28;20042;-71
2021/10/07 00:09:53;;;;;;;11.75;7.35;;;10.20;92.40;;;;;;4989345;28;20060;-70
2021/10/07 00:12:18;;;;;;;13.43;8.13;;;10.20;92.40;;;;;;4982061;28;20121;-70
2021/10/07 00:14:44;;;;;;;15.85;8.02;;;10.10;92.40;;;;;;4989122;28;20121;-70
2021/10/07 00:17:10;;;;;;;13.55;8.38;;;10.20;92.50;;;;;;4988391;28;20109;-71
2021/10/07 00:19:36;;;;;;;15.80;7.85;;;10.10;92.50;;;;;;4985407;28;20108;-70
2021/10/07 00:22:03;;;;;;;10.93;8.02;;;10.10;92.50;;;;;;4981122;28;20066;-70
2021/10/07 00:24:29;;;;;;;15.93;8.55;;;10.10;92.60;;;;;;4982852;28;20049;-70
2021/10/07 00:26:55;;;;;;;13.13;8.20;;;10.10;92.60;;;;;;4986309;28;20057;-70
2021/10/07 00:32:19;;;;;;;;;;;10.00;92.70;;;;;;4988920;28;20042;-73
2021/10/07 00:40:05;;;;;;;15.10;10.02;;;9.90;92.70;;;;;;4989088;28;20045;-70
2021/10/07 00:42:31;;;;;;;16.45;9.23;;;9.90;92.80;;;;;;4999019;28;20034;-72
2021/10/07 00:44:57;;;;;;;15.50;8.95;;;9.90;92.80;;;;;;4986725;28;20513;-71
2021/10/07 00:47:23;;;;;;;16.90;9.45;;;9.80;92.70;;;;;;4982576;28;20038;-70
2021/10/07 00:49:50;;;;;;;17.55;10.15;;;9.80;92.80;;;;;;4987607;28;20045;-70
2021/10/07 00:52:18;;;;;;;16.10;10.35;;;9.80;92.80;;;;;;4983213;28;20068;-70
2021/10/07 00:54:52;;;;;;;15.05;11.23;;;9.70;92.90;;;;;;4986423;28;20045;-70
2021/10/07 00:57:20;;;;;;;17.17;11.10;;;9.70;92.90;;;;;;4987350;28;20037;-70
2021/10/07 00:59:47;;;;;;;16.65;9.95;;;9.60;92.90;;;;;;4983647;28;20065;-71
2021/10/07 01:02:13;;;;;;;18.90;12.40;;;9.70;92.90;;;;;;4985517;28;20121;-75
2021/10/07 01:04:40;;;;;;;18.30;10.65;;;9.60;93.00;;;;;;4987849;28;20077;-72
2021/10/07 01:07:06;;;;;;;16.25;11.68;;;9.60;93.00;;;;;;4999428;28;20100;-69
2021/10/07 01:09:33;;;;;;;16.98;10.20;;;9.60;92.90;;;;;;4988173;28;20109;-70
2021/10/07 01:12:01;;;;;;;14.27;9.57;;;9.60;93.00;;;;;;4985453;28;20368;-69
2021/10/07 01:14:34;;;;;;;14.57;9.52;;;9.50;93.00;;;;;;4984982;28;20042;-70
2021/10/07 01:17:01;;;;;;;15.65;10.52;;;9.50;93.00;;;;;;4984731;28;20050;-70
2021/10/07 01:19:27;;;;;;;17.80;11.10;;;9.50;93.10;;;;;;4981769;28;20134;-70
2021/10/07 01:21:53;;;;;;;19.15;12.88;;;9.50;93.10;;;;;;4981505;28;20497;-70
2021/10/07 01:24:19;;;;;;;18.40;12.32;;;9.50;93.10;;;;;;4984177;28;20088;-69
2021/10/07 01:26:45;;;;;;;17.52;12.35;;;9.40;93.20;;;;;;4980946;28;20034;-70
2021/10/07 01:29:11;;;;;;;14.25;11.80;;;9.50;93.30;;;;;;4983347;28;20767;-70
2021/10/07 01:31:37;;;;;;;18.27;13.07;;;9.50;93.30;;;;;;4983324;28;20803;-70
2021/10/07 01:34:05;;;;;;;15.43;12.00;;;9.50;93.40;;;;;;4981266;28;20093;-71
2021/10/07 01:36:31;;;;;;;18.40;14.32;;;9.50;93.40;;;;;;4983841;28;20509;-70
2021/10/07 01:38:56;;;;;;;19.45;14.38;;;9.40;93.40;;;;;;4988431;28;20050;-73
2021/10/07 01:41:22;;;;;;;20.27;15.50;;;9.40;93.50;;;;;;4985305;28;20311;-69
2021/10/07 01:43:54;;;;;;;22.23;15.15;;;9.40;93.50;;;;;;4982152;28;20034;-70
2021/10/07 01:46:19;;;;;;;18.70;14.07;;;9.40;93.50;;;;;;4981093;28;20055;-70
2021/10/07 01:48:45;;;;;;;21.40;15.07;;;9.30;93.50;;;;;;4979402;28;20497;-71
2021/10/07 01:51:11;;;;;;;20.35;14.52;;;9.30;93.50;;;;;;4983267;28;20038;-70
2021/10/07 01:53:37;;;;;;;19.63;14.10;;;9.20;93.50;;;;;;5002428;28;20359;-71
2021/10/07 01:56:03;;;;;;;19.60;15.85;;;9.20;93.50;;;;;;5003771;28;20139;-69
2021/10/07 01:58:29;;;;;;;19.33;15.40;;;9.20;93.50;;;;;;4998606;28;20034;-70
2021/10/07 02:00:55;;;;;;;22.38;17.23;;;9.10;93.50;;;;;;5001782;28;20034;-70
2021/10/07 02:03:21;;;;;;;23.05;16.65;;;9.10;93.60;;;;;;5004924;28;20132;-70
2021/10/07 02:05:47;;;;;;;20.95;16.48;;;9.10;93.60;;;;;;5006886;28;20038;-70
2021/10/07 02:08:13;;;;;;;21.33;17.48;;;9.10;93.60;;;;;;5002319;28;20046;-70
2021/10/07 02:10:39;;;;;;;20.58;16.63;;;9.10;93.60;;;;;;4992480;28;20031;-73
2021/10/07 02:13:05;;;;;;;23.88;16.40;;;9.00;93.60;;;;;;5001001;28;20045;-70
2021/10/07 02:15:31;;;;;;;21.08;15.90;;;9.00;93.50;;;;;;5003280;28;20034;-70
2021/10/07 02:17:57;;;;;;;21.33;16.27;;;9.00;93.50;;;;;;5000499;28;20034;-70
2021/10/07 02:20:23;;;;;;;23.40;17.58;;;8.90;93.50;;;;;;4997385;28;20034;-70
2021/10/07 02:22:49;;;;;;;21.88;15.15;;;8.90;93.50;;;;;;5002644;28;20030;-70
2021/10/07 02:25:16;;;;;;;21.98;15.90;;;8.90;93.50;;;;;;5002983;28;20473;-71
2021/10/07 02:27:42;;;;;;;22.67;16.13;;;8.90;93.50;;;;;;5004427;28;20046;-72
2021/10/07 02:30:11;;;;;;;21.48;16.73;;;8.90;93.60;;;;;;5004190;28;20049;-72
2021/10/07 02:32:37;;;;;;;20.33;16.10;;;8.90;93.60;;;;;;5005530;28;20108;-70
2021/10/07 02:35:04;;;;;;;20.65;15.15;;;8.90;93.50;;;;;;5000362;28;20116;-71
2021/10/07 02:37:30;;;;;;;19.75;15.48;;;8.80;93.50;;;;;;5004366;28;21175;-71
2021/10/07 02:39:56;;;;;;;19.20;14.75;;;8.80;93.60;;;;;;5003435;28;20060;-69
2021/10/07 02:42:22;;;;;;;17.88;14.10;;;8.80;93.60;;;;;;5003138;28;20046;-70
2021/10/07 02:44:47;;;;;;;23.15;14.50;;;8.80;93.60;;;;;;4984145;28;20059;-69
2021/10/07 02:47:13;;;;;;;18.08;14.00;;;8.70;93.60;;;;;;4982570;28;20483;-70
2021/10/07 02:49:40;;;;;;;18.40;13.63;;;8.70;93.70;;;;;;4983929;28;20065;-70
2021/10/07 02:52:06;;;;;;;19.35;14.50;;;8.70;93.70;;;;;;4975621;28;20142;-72
2021/10/07 02:54:32;;;;;;;18.92;14.88;;;8.60;93.70;;;;;;4983289;28;20035;-71
2021/10/07 02:56:58;;;;;;;20.75;16.30;;;8.60;93.70;;;;;;4979003;28;20049;-69
2021/10/07 02:59:24;;;;;;;18.92;15.10;;;8.60;93.70;;;;;;4978671;28;20402;-73
2021/10/07 03:01:51;;;;;;;21.25;14.82;;;8.60;93.60;;;;;;4984258;28;20026;-70
2021/10/07 03:04:16;;;;;;;20.23;14.80;;;8.50;93.70;;;;;;4983138;28;20042;-75
2021/10/07 03:06:42;;;;;;;20.02;15.93;;;8.60;93.80;;;;;;4986373;28;20034;-71
2021/10/07 03:09:08;;;;;;;23.30;16.35;;;8.50;93.70;;;;;;4986463;28;20031;-70
2021/10/07 03:11:34;;;;;;;23.20;16.55;;;8.60;93.80;;;;;;4986222;28;20093;-74
2021/10/07 03:14:00;;;;;;;21.40;15.18;;;8.60;93.80;;;;;;4988350;28;20547;-71
2021/10/07 03:16:26;;;;;;;21.15;16.98;;;8.60;93.80;;;;;;4992509;28;20031;-70
2021/10/07 03:18:51;;;;;;;18.92;15.23;;;8.60;93.80;;;;;;4983957;28;20045;-70
2021/10/07 03:21:18;;;;;;;21.65;15.85;;;8.50;93.80;;;;;;4986014;28;20031;-70
2021/10/07 03:23:44;;;;;;;23.13;17.30;;;8.60;93.90;;;;;;4987237;28;20049;-71
2021/10/07 03:26:10;;;;;;;22.73;16.88;;;8.50;93.90;;;;;;4977905;28;20138;-71
2021/10/07 03:28:36;;;;;;;21.58;16.98;;;8.50;93.90;;;;;;4984184;28;20073;-69
2021/10/07 03:31:02;;;;;;;20.00;15.32;;;8.50;93.90;;;;;;4984834;28;20156;-70
2021/10/07 03:33:28;;;;;;;23.00;17.75;;;8.50;94.00;;;;;;4985136;28;20042;-69
2021/10/07 03:35:54;;;;;;;22.08;17.73;;;8.50;94.10;;;;;;4988878;28;20034;-70
2021/10/07 03:38:20;;;;;;;27.52;18.95;;;8.50;94.10;;;;;;4984612;28;20375;-70
2021/10/07 03:40:46;;;;;;;23.90;17.98;;;8.40;94.10;;;;;;4987279;28;20443;-69
2021/10/07 03:43:12;;;;;;;22.42;17.40;;;8.50;94.20;;;;;;4984440;28;20204;-71
2021/10/07 03:45:38;;;;;;;23.23;17.88;;;8.40;94.20;;;;;;4989803;28;20125;-70
2021/10/07 03:48:04;;;;;;;25.50;18.00;;;8.40;94.20;;;;;;4982613;28;20030;-70
2021/10/07 03:50:30;;;;;;;21.77;16.25;;;8.50;94.20;;;;;;4984360;28;20035;-70
2021/10/07 03:52:57;;;;;;;22.77;16.42;;;8.40;94.20;;;;;;4995251;28;20042;-72
2021/10/07 03:55:23;;;;;;;20.73;17.20;;;8.40;94.10;;;;;;5000956;28;20030;-70
2021/10/07 03:57:49;;;;;;;23.13;17.25;;;8.30;94.10;;;;;;5002007;28;20363;-69
2021/10/07 04:00:16;;;;;;;24.83;17.98;;;8.30;94.10;;;;;;5008648;28;20038;-71
2021/10/07 04:02:42;;;;;;;25.20;17.95;;;8.30;94.10;;;;;;5002920;28;20022;-74
2021/10/07 04:05:08;;;;;;;23.40;18.25;;;8.30;94.20;;;;;;5003637;28;20540;-70
2021/10/07 04:07:34;;;;;;;22.00;18.33;;;8.30;94.20;;;;;;5007106;28;20413;-71
2021/10/07 04:10:00;;;;;;;22.17;18.80;;;8.20;94.20;;;;;;5005508;28;20062;-70
2021/10/07 04:12:26;;;;;;;30.23;19.33;;;8.20;94.20;;;;;;5007701;28;20437;-69
2021/10/07 04:14:52;;;;;;;24.67;19.20;;;8.30;94.30;;;;;;5011580;28;20141;-73
2021/10/07 04:17:18;;;;;;;23.85;18.42;;;8.30;94.30;;;;;;5006265;28;20034;-70
2021/10/07 04:19:44;;;;;;;25.48;19.70;;;8.30;94.30;;;;;;5007173;28;20038;-71
2021/10/07 04:22:10;;;;;;;24.30;19.20;;;8.30;94.30;;;;;;5014881;28;20041;-70
2021/10/07 04:24:36;;;;;;;24.60;18.85;;;8.30;94.30;;;;;;4987172;28;20525;-72
2021/10/07 04:27:02;;;;;;;23.85;18.10;;;8.30;94.40;;;;;;4982233;28;20078;-71
2021/10/07 04:29:28;;;;;;;22.90;17.35;;;8.30;94.40;;;;;;4979587;28;20027;-70
2021/10/07 04:31:54;;;;;;;23.17;18.05;;;8.30;94.30;;;;;;4983752;28;20034;-70
2021/10/07 04:34:20;;;;;;;23.75;18.63;;;8.20;94.30;;;;;;4977856;28;20038;-73
2021/10/07 04:36:46;;;;;;;22.17;17.10;;;8.20;94.30;;;;;;4983538;28;20053;-73
2021/10/07 04:39:12;;;;;;;23.15;17.45;;;8.20;94.30;;;;;;4986776;28;20974;-70
2021/10/07 04:41:38;;;;;;;24.60;17.88;;;8.10;94.30;;;;;;4986815;28;20059;-70
2021/10/07 04:44:04;;;;;;;27.52;18.52;;;8.10;94.30;;;;;;4981991;28;20054;-69
2021/10/07 04:46:30;;;;;;;26.55;18.70;;;8.00;94.30;;;;;;4978967;28;20513;-71
2021/10/07 04:48:57;;;;;;;23.33;17.15;;;8.00;94.30;;;;;;4985244;28;20121;-70
2021/10/07 04:51:23;;;;;;;21.65;17.42;;;7.90;94.30;;;;;;4985268;28;20031;-70
2021/10/07 04:53:50;;;;;;;21.95;17.55;;;7.80;94.30;;;;;;4980339;28;20042;-69
2021/10/07 04:56:16;;;;;;;20.85;16.27;;;7.80;94.30;;;;;;4982772;28;20042;-70
2021/10/07 04:58:42;;;;;;;21.30;17.02;;;7.80;94.30;;;;;;4986775;28;20041;-71
2021/10/07 05:01:08;;;;;;;22.10;17.02;;;7.80;94.30;;;;;;4983509;28;20069;-70
2021/10/07 05:03:34;;;;;;;22.13;16.42;;;7.70;94.30;;;;;;4981642;28;20120;-72
2021/10/07 05:06:00;;;;;;;22.42;16.00;;;7.80;94.40;;;;;;4986341;28;20451;-72
2021/10/07 05:08:25;;;;;;;20.23;15.65;;;7.70;94.30;;;;;;4985546;28;20041;-72
2021/10/07 05:10:54;;;;;;;20.77;15.70;;;7.70;94.30;;;;;;4978333;28;20062;-70
2021/10/07 05:13:20;;;;;;;22.63;16.50;;;7.60;94.30;;;;;;4979841;28;20050;-75
2021/10/07 05:15:46;;;;;;;25.05;17.50;;;7.60;94.30;;;;;;4982513;28;20034;-70
2021/10/07 05:18:12;;;;;;;25.05;17.50;;;7.60;94.30;;;;;;4982629;28;20474;-73
2021/10/07 05:20:37;;;;;;;23.30;15.45;;;7.60;94.30;;;;;;4983994;28;20098;-70
2021/10/07 05:23:05;;;;;;;22.15;16.38;;;7.60;94.30;;;;;;4981748;28;20134;-71
2021/10/07 05:25:31;;;;;;;21.13;15.85;;;7.50;94.30;;;;;;4985376;28;20040;-72
2021/10/07 05:27:57;;;;;;;20.45;15.55;;;7.50;94.30;;;;;;4985809;28;20053;-70
2021/10/07 05:30:23;;;;;;;22.38;17.52;;;7.50;94.30;;;;;;4984885;28;20122;-72
2021/10/07 05:32:49;;;;;;;22.67;17.40;;;7.50;94.30;;;;;;4985215;28;20085;-70
2021/10/07 05:35:15;;;;;;;25.70;17.48;;;7.50;94.30;;;;;;4983043;28;20038;-69
2021/10/07 05:37:40;;;;;;;23.48;17.33;;;7.50;94.30;;;;;;4977026;28;20065;-70
2021/10/07 05:40:07;;;;;;;24.27;18.13;;;7.50;94.30;;;;;;4985056;28;20057;-69
2021/10/07 05:42:33;;;;;;;22.60;17.70;;;7.50;94.30;;;;;;4977278;28;20471;-69
2021/10/07 05:44:59;;;;;;;21.35;17.98;;;7.50;94.30;;;;;;4979048;28;20046;-70
2021/10/07 05:47:25;;;;;;;23.90;18.23;;;7.50;94.30;;;;;;4982558;28;20402;-68
2021/10/07 05:49:51;;;;;;;22.90;17.52;;;7.50;94.30;;;;;;4999994;28;20030;-69
2021/10/07 05:52:17;;;;;;;21.98;18.10;;;7.50;94.40;;;;;;5000970;28;20041;-72
2021/10/07 05:54:43;;;;;;;22.08;18.08;;;7.50;94.40;;;;;;4999346;28;20049;-71
2021/10/07 05:57:09;;;;;;;21.63;16.52;;;7.50;94.40;;;;;;5004912;28;20034;-68
2021/10/07 05:59:35;;;;;;;23.42;18.23;;;7.50;94.40;;;;;;4996128;28;20042;-68
2021/10/07 06:02:01;;;;;;;21.27;18.90;;;7.50;94.40;;;;;;5004881;28;20124;-70
2021/10/07 06:04:27;;;;;;;24.65;18.88;;;7.50;94.50;;;;;;5005343;28;20442;-68
2021/10/07 06:06:53;;;;;;;24.73;18.42;;;7.50;94.50;;;;;;5004221;28;20037;-68
2021/10/07 06:09:19;;;;;;;23.17;18.58;;;7.60;94.50;;;;;;5004937;28;20045;-73
2021/10/07 06:11:44;;;;;;;23.60;17.55;;;7.60;94.50;;;;;;5000797;28;20080;-69
2021/10/07 06:14:11;;;;;;;22.63;17.35;;;7.60;94.50;;;;;;5004834;28;20221;-70
2021/10/07 06:16:40;;;;;;;28.83;19.40;;;7.60;94.50;;;;;;5011715;28;20089;-69
2021/10/07 06:19:15;;;;;;;24.95;19.08;;;7.60;94.50;;;;;;4998238;28;20026;-68
2021/10/07 06:21:41;;;;;;;24.55;17.90;;;7.60;94.40;;;;;;5003961;28;20478;-69
2021/10/07 06:24:07;;;;;;;25.20;19.48;;;7.60;94.50;;;;;;5006470;28;20092;-68
2021/10/07 06:26:33;;;;;;;26.25;17.70;;;7.70;94.50;;;;;;4999885;28;20060;-68
2021/10/07 06:28:59;;;;;;;23.55;19.02;;;7.80;94.50;;;;;;5004566;28;20058;-69
2021/10/07 06:31:25;;;;;;;26.08;18.23;;;7.80;94.50;;;;;;5003988;28;20041;-69
2021/10/07 06:33:51;;;;;;;24.35;18.60;;;7.90;94.50;;;;;;5004715;28;20030;-68
2021/10/07 06:36:17;;;;;;;22.98;18.63;;;8.00;94.50;;;;;;4998540;28;20779;-68
2021/10/07 06:38:43;;;;;;;26.67;18.98;;;8.10;94.40;;;;;;5011509;28;20520;-69
2021/10/07 06:41:09;;;;;;;26.90;19.35;;;8.10;94.40;;;;;;5000224;28;20030;-68
2021/10/07 06:43:35;;;;;;;23.60;18.95;;;8.20;94.30;;;;;;5002194;28;20072;-69
2021/10/07 06:46:01;;;;;;;23.55;18.23;;;8.20;94.20;;;;;;5005993;28;20038;-68
2021/10/07 06:48:27;;;;;;;22.23;18.42;;;8.30;94.20;;;;;;4998381;28;20454;-73
2021/10/07 06:50:53;;;;;;;28.60;21.05;;;8.30;94.10;;;;;;4997838;28;20169;-68
2021/10/07 06:53:18;;;;;;;23.95;18.35;;;8.40;94.10;;;;;;4996810;28;20034;-67
2021/10/07 06:55:44;;;;;;;25.95;19.77;;;8.40;94.00;;;;;;5000359;28;20042;-68
2021/10/07 06:58:10;;;;;;;26.00;18.63;;;8.50;94.00;;;;;;5001870;28;20038;-67
2021/10/07 07:00:37;;;;;;;26.98;19.77;;;8.50;94.00;;;;;;5004213;28;20049;-68
2021/10/07 07:03:05;;;;;;;26.80;19.08;;;8.60;94.00;;;;;;5004445;28;20057;-67
2021/10/07 07:05:31;;;;;;;25.88;19.77;;;8.60;94.00;;;;;;5003694;28;20092;-67
2021/10/07 07:07:57;;;;;;;29.25;22.27;;;8.70;94.00;;;;;;5005501;28;20030;-67
2021/10/07 07:10:23;;;;;;;28.08;22.45;;;8.80;94.00;;;;;;5006420;28;20033;-68
2021/10/07 07:12:51;;;;;;;33.03;22.20;;;8.80;94.00;;;;;;5005867;28;20034;-68
2021/10/07 07:15:19;;;;;;;29.00;21.27;;;8.90;94.00;;;;;;5001635;28;20046;-67
2021/10/07 07:17:45;;;;;;;31.40;24.25;;;9.00;94.10;;;;;;4997770;28;20096;-68
2021/10/07 07:20:11;;;;;;;29.02;23.60;;;9.10;94.10;;;;;;5002387;28;20498;-70
2021/10/07 07:22:38;;;;;;;36.88;26.88;;;9.20;94.10;;;;;;5004081;28;20034;-70
2021/10/07 07:25:05;;;;;;;30.63;25.50;;;9.30;94.20;;;;;;4998193;28;20048;-69
2021/10/07 07:27:32;;;;;;;29.83;24.42;;;9.40;94.20;;;;;;4994386;28;20070;-68
2021/10/07 07:29:58;;;;;;;32.13;25.55;;;9.50;94.20;;;;;;4998304;28;20022;-72
2021/10/07 07:32:23;;;;;;;36.05;26.98;;;9.60;94.20;;;;;;4991551;28;20394;-69
2021/10/07 07:34:49;;;;;;;41.60;31.30;;;9.70;94.20;;;;;;4995656;28;20038;-67
2021/10/07 07:37:15;;;;;;;35.47;27.45;;;9.80;94.30;;;;;;4995571;28;20029;-72
2021/10/07 07:39:41;;;;;;;37.00;28.33;;;9.80;94.30;;;;;;4993892;28;20168;-69
2021/10/07 07:42:07;;;;;;;36.15;27.73;;;10.00;94.30;;;;;;4993161;28;20205;-72
2021/10/07 07:44:33;;;;;;;40.35;31.48;;;10.10;94.30;;;;;;4996371;28;20164;-68
2021/10/07 07:46:59;;;;;;;35.78;28.20;;;10.20;94.40;;;;;;4998841;28;20450;-67
2021/10/07 07:49:25;;;;;;;36.17;28.05;;;10.30;94.40;;;;;;4994462;28;20045;-68
2021/10/07 07:51:51;;;;;;;37.17;27.40;;;10.50;94.40;;;;;;4997863;28;20693;-71
2021/10/07 07:54:18;;;;;;;39.95;30.73;;;10.60;94.30;;;;;;4999541;28;20076;-72
2021/10/07 07:56:44;;;;;;;40.67;29.25;;;10.70;94.20;;;;;;4998235;28;20041;-68
2021/10/07 07:59:10;;;;;;;38.88;29.80;;;10.90;94.20;;;;;;4999276;28;20058;-68
2021/10/07 08:01:36;;;;;;;34.70;26.58;;;11.10;94.10;;;;;;4999195;28;20498;-70
2021/10/07 08:04:04;;;;;;;31.83;25.10;;;11.30;93.90;;;;;;5011785;28;20385;-72
2021/10/07 08:06:32;;;;;;;31.23;23.92;;;11.50;93.70;;;;;;5006399;28;20030;-69
2021/10/07 08:08:58;;;;;;;31.33;23.40;;;11.60;93.60;;;;;;5005948;28;20065;-68
2021/10/07 08:11:24;;;;;;;31.17;22.73;;;11.90;93.50;;;;;;5004691;28;20050;-68
2021/10/07 08:13:50;;;;;;;28.58;21.90;;;12.00;93.20;;;;;;5004260;28;20061;-67
2021/10/07 08:16:16;;;;;;;26.55;22.05;;;12.30;93.00;;;;;;5006856;28;20038;-68
2021/10/07 08:18:43;;;;;;;27.42;20.83;;;12.50;92.50;;;;;;5002750;28;20033;-69
2021/10/07 08:21:09;;;;;;;28.40;19.55;;;12.60;91.60;;;;;;5001393;28;20019;-68
2021/10/07 08:23:36;;;;;;;26.02;19.48;;;12.80;90.70;;;;;;5002596;28;20026;-68
2021/10/07 08:26:02;;;;;;;26.58;20.45;;;13.00;90.10;;;;;;5003252;28;20556;-69
2021/10/07 08:28:28;;;;;;;26.17;19.83;;;13.10;89.30;;;;;;5000357;28;20120;-69
2021/10/07 08:30:54;;;;;;;24.25;17.48;;;13.40;88.60;;;;;;5003298;28;20108;-69
2021/10/07 08:33:20;;;;;;;24.80;18.13;;;13.60;88.20;;;;;;4999802;28;20054;-69
2021/10/07 08:35:48;;;;;;;28.00;17.30;;;13.70;87.20;;;;;;4997967;28;20481;-70
2021/10/07 08:38:15;;;;;;;25.63;17.70;;;14.00;87.10;;;;;;5003326;28;20350;-69
2021/10/07 08:40:41;;;;;;;24.50;16.35;;;14.20;86.20;;;;;;5001578;28;20470;-72
2021/10/07 08:43:07;;;;;;;23.92;16.75;;;14.30;85.50;;;;;;5006390;28;20118;-67
2021/10/07 08:45:33;;;;;;;24.70;16.80;;;14.40;85.00;;;;;;5002581;28;20046;-68
2021/10/07 08:47:59;;;;;;;20.05;15.93;;;14.60;85.40;;;;;;5003177;28;20470;-67
2021/10/07 08:50:25;;;;;;;17.73;14.77;;;14.80;84.40;;;;;;5006160;28;20034;-68
2021/10/07 08:52:51;;;;;;;20.55;14.80;;;14.90;83.50;;;;;;5004857;28;20095;-67
2021/10/07 08:55:17;;;;;;;18.05;13.68;;;15.00;84.00;;;;;;5006732;28;20068;-70
2021/10/07 08:57:44;;;;;;;17.83;13.00;;;15.10;83.40;;;;;;5006179;28;20030;-71
2021/10/07 09:00:12;;;;;;;19.83;13.52;;;15.30;83.00;;;;;;5003111;28;20742;-72
2021/10/07 09:02:38;;;;;;;18.02;12.98;;;15.60;83.10;;;;;;5004219;28;20041;-75
2021/10/07 09:05:14;;;;;;;18.33;12.77;;;15.70;81.20;;;;;;5002230;28;20132;-69
2021/10/07 09:07:57;;;;;;;19.05;13.10;;;15.70;80.80;;;;;;5003040;28;20117;-72
2021/10/07 09:10:46;;;;;;;15.40;11.10;;;15.80;81.50;;;;;;5000968;28;20069;-72
2021/10/07 09:13:18;;;;;;;17.67;11.88;;;15.70;81.10;;;;;;5003979;28;20049;-69
2021/10/07 09:15:54;;;;;;;17.08;11.13;;;15.90;80.70;;;;;;5005533;28;20426;-68
2021/10/07 09:18:21;;;;;;;14.57;10.02;;;16.20;80.20;;;;;;5003301;28;20037;-69
2021/10/07 09:20:50;;;;;;;18.50;11.85;;;16.40;79.10;;;;;;5004479;28;20034;-69
2021/10/07 09:23:22;;;;;;;19.75;11.63;;;16.40;77.70;;;;;;5000287;28;20669;-70
2021/10/07 09:26:06;;;;;;;18.13;10.85;;;16.60;78.80;;;;;;5005645;28;20042;-70
2021/10/07 09:28:58;;;;;;;15.90;11.48;;;16.70;77.70;;;;;;5003605;28;20050;-68
2021/10/07 09:31:29;;;;;;;16.45;11.23;;;16.90;77.80;;;;;;4994469;28;20034;-69
2021/10/07 09:33:58;;;;;;;20.05;11.38;;;16.90;77.30;;;;;;5000738;28;20041;-70
2021/10/07 09:36:24;;;;;;;14.73;10.38;;;16.80;77.40;;;;;;5002155;28;20034;-72
2021/10/07 09:38:52;;;;;;;15.98;11.23;;;16.90;78.40;;;;;;4994065;28;20366;-70
2021/10/07 09:41:22;;;;;;;19.23;11.00;;;17.10;76.80;;;;;;5002634;28;20030;-69
2021/10/07 09:44:08;;;;;;;21.30;11.07;;;17.20;75.60;;;;;;5004310;28;20030;-74
2021/10/07 09:46:45;;;;;;;18.50;12.02;;;17.30;75.60;;;;;;5006021;28;20034;-69
2021/10/07 09:49:31;;;;;;;16.02;10.48;;;17.40;74.20;;;;;;4996255;28;20365;-69
2021/10/07 09:51:58;;;;;;;16.83;9.38;;;17.50;74.70;;;;;;4999784;28;20065;-69
2021/10/07 09:54:27;;;;;;;15.90;9.30;;;17.60;73.10;;;;;;5002149;28;20026;-68
2021/10/07 09:56:58;;;;;;;13.80;9.40;;;17.60;73.30;;;;;;5004919;28;20080;-74
2021/10/07 09:59:25;;;;;;;15.18;10.40;;;17.70;72.30;;;;;;5002927;28;20037;-69
2021/10/07 10:01:54;;;;;;;12.98;8.32;;;17.80;72.70;;;;;;4999094;28;20045;-74
2021/10/07 10:04:20;;;;;;;16.00;10.20;;;17.70;71.40;;;;;;5002319;28;20048;-69
2021/10/07 10:06:46;;;;;;;14.55;9.55;;;17.50;72.40;;;;;;5002656;28;20496;-70
2021/10/07 10:09:12;;;;;;;17.00;8.73;;;17.50;73.20;;;;;;4996983;28;20064;-72
2021/10/07 10:11:41;;;;;;;19.63;8.98;;;17.60;72.20;;;;;;5003325;28;20134;-70
2021/10/07 10:14:08;;;;;;;15.95;8.75;;;17.70;70.20;;;;;;4995989;28;20124;-70
2021/10/07 10:16:36;;;;;;;12.68;8.35;;;17.50;68.90;;;;;;5002853;28;20030;-69
2021/10/07 10:19:03;;;;;;;14.73;8.82;;;17.60;68.70;;;;;;5003185;28;20456;-70
2021/10/07 10:21:33;;;;;;;16.20;9.52;;;17.80;69.60;;;;;;5002568;28;20363;-69
2021/10/07 10:24:00;;;;;;;16.08;8.05;;;18.10;69.90;;;;;;5002201;28;20470;-71
2021/10/07 10:26:27;;;;;;;12.73;8.25;;;18.20;69.30;;;;;;5001354;28;20034;-70
2021/10/07 10:28:53;;;;;;;13.40;8.50;;;18.40;68.20;;;;;;5003985;28;20512;-72
2021/10/07 10:31:38;;;;;;;15.55;8.43;;;18.10;68.90;;;;;;5003197;28;20100;-73
2021/10/07 10:34:08;;;;;;;10.15;6.88;;;17.90;68.30;;;;;;4994890;28;20058;-73
2021/10/07 10:36:58;;;;;;;10.55;5.78;;;18.00;66.80;;;;;;4994327;28;20046;-69
2021/10/07 10:39:35;;;;;;;9.93;5.80;;;18.30;65.40;;;;;;4993554;28;20034;-69
2021/10/07 10:42:05;;;;;;;10.82;5.22;;;18.40;65.50;;;;;;4992272;28;20065;-70
2021/10/07 10:44:57;;;;;;;12.20;5.25;;;18.20;64.50;;;;;;4988791;28;20100;-68
2021/10/07 10:47:24;;;;;;;12.50;6.45;;;18.20;63.10;;;;;;4986927;28;20118;-69
2021/10/07 10:49:50;;;;;;;11.25;6.43;;;18.20;63.90;;;;;;4974739;28;20034;-69
2021/10/07 10:52:22;;;;;;;14.13;7.93;;;18.30;64.90;;;;;;4976875;28;20053;-70
2021/10/07 10:54:58;;;;;;;11.23;6.97;;;18.50;63.50;;;;;;4973516;28;21074;-71
2021/10/07 10:57:33;;;;;;;11.68;6.13;;;18.50;62.20;;;;;;4973640;28;20567;-69
2021/10/07 11:00:11;;;;;;;11.75;6.85;;;18.60;62.80;;;;;;4974081;28;20038;-70
2021/10/07 11:02:41;;;;;;;14.48;7.25;;;18.60;62.10;;;;;;4972328;28;20038;-69
2021/10/07 11:05:28;;;;;;;12.65;7.18;;;18.60;61.60;;;;;;4974019;28;20129;-69
2021/10/07 11:08:15;;;;;;;13.63;5.95;;;18.60;60.70;;;;;;4975046;28;20483;-69
2021/10/07 11:10:47;;;;;;;10.98;6.53;;;18.60;62.70;;;;;;4987671;28;20072;-70
2021/10/07 11:13:20;;;;;;;12.82;6.22;;;18.20;61.60;;;;;;5001579;28;20037;-75
2021/10/07 11:15:54;;;;;;;10.23;6.47;;;18.10;63.20;;;;;;4995576;28;20128;-75
2021/10/07 11:18:21;;;;;;;12.38;6.18;;;18.20;62.60;;;;;;4992298;28;20065;-72
2021/10/07 11:20:58;;;;;;;11.82;6.50;;;18.30;61.40;;;;;;4992773;28;20066;-72
2021/10/07 11:23:25;;;;;;;12.30;7.28;;;18.60;62.60;;;;;;4999782;28;20037;-73
2021/10/07 11:25:54;;;;;;;11.20;6.65;;;18.80;62.40;;;;;;4996621;28;20046;-73
2021/10/07 11:28:28;;;;;;;12.38;6.95;;;18.80;60.20;;;;;;5000850;28;20045;-74
2021/10/07 11:31:07;;;;;;;10.63;6.57;;;18.80;62.60;;;;;;4999151;28;20505;-73
2021/10/07 11:33:34;;;;;;;11.77;6.68;;;18.90;61.50;;;;;;4998080;28;20118;-73
2021/10/07 11:36:05;;;;;;;10.35;6.63;;;18.90;62.30;;;;;;4999554;28;20042;-73
2021/10/07 11:38:32;;;;;;;12.73;6.93;;;18.80;61.30;;;;;;4999090;28;20117;-70
2021/10/07 11:41:00;;;;;;;10.50;6.38;;;19.00;60.70;;;;;;4995699;28;20494;-79
2021/10/07 11:43:33;;;;;;;10.52;6.25;;;19.10;60.50;;;;;;4998005;28;20493;-73
2021/10/07 11:46:04;;;;;;;11.65;5.60;;;19.10;59.40;;;;;;4994790;28;20049;-73
2021/10/07 11:48:30;;;;;;;13.80;5.80;;;19.10;59.10;;;;;;4997045;28;20061;-73
2021/10/07 11:51:02;;;;;;;10.77;6.00;;;19.10;59.50;;;;;;4998455;28;20133;-70
2021/10/07 11:53:32;;;;;;;9.27;6.35;;;19.10;58.90;;;;;;4998222;28;20038;-75
2021/10/07 11:55:59;;;;;;;13.80;7.40;;;19.10;58.20;;;;;;4998636;28;20034;-73
2021/10/07 11:58:27;;;;;;;10.63;6.93;;;19.10;59.90;;;;;;5008975;28;20045;-70
2021/10/07 12:00:54;;;;;;;12.23;6.75;;;19.10;60.60;;;;;;5005730;28;20053;-71
2021/10/07 12:03:30;;;;;;;12.90;6.93;;;19.20;60.00;;;;;;5000502;28;20030;-70
2021/10/07 12:06:02;;;;;;;11.27;6.85;;;19.10;58.40;;;;;;5004641;28;20041;-70
2021/10/07 12:08:34;;;;;;;10.38;6.55;;;18.90;59.50;;;;;;5011122;28;20029;-74
2021/10/07 12:11:07;;;;;;;10.38;6.60;;;19.10;59.80;;;;;;5006773;28;20046;-70
2021/10/07 12:13:39;;;;;;;11.98;6.63;;;19.20;59.50;;;;;;5005210;28;20128;-69
2021/10/07 12:16:14;;;;;;;14.02;6.32;;;19.30;58.30;;;;;;5002395;28;20061;-70
2021/10/07 12:18:50;;;;;;;15.27;6.53;;;19.50;59.50;;;;;;5004552;28;20073;-71
2021/10/07 12:21:22;;;;;;;10.82;5.82;;;19.40;60.30;;;;;;5006517;28;20679;-73
2021/10/07 12:24:02;;;;;;;14.68;6.75;;;19.40;59.60;;;;;;5007263;28;20494;-70
2021/10/07 12:26:36;;;;;;;10.38;6.63;;;19.40;59.10;;;;;;5008007;28;20050;-71
2021/10/07 12:29:09;;;;;;;13.35;6.20;;;19.40;59.00;;;;;;5000750;28;20507;-70
2021/10/07 12:31:35;;;;;;;15.40;6.82;;;19.50;58.20;;;;;;5010121;28;20042;-70
2021/10/07 12:34:11;;;;;;;8.75;5.38;;;19.30;57.00;;;;;;5007188;28;20025;-72
2021/10/07 12:36:40;;;;;;;13.18;5.35;;;19.30;58.70;;;;;;5005537;28;20038;-70
2021/10/07 12:39:31;;;;;;;9.32;4.85;;;19.20;58.60;;;;;;5013123;28;20047;-70
2021/10/07 12:42:05;;;;;;;10.18;6.03;;;19.30;59.60;;;;;;5006695;28;20257;-73
2021/10/07 12:44:33;;;;;;;11.32;5.40;;;19.20;60.20;;;;;;5013183;28;20041;-71
2021/10/07 12:47:02;;;;;;;10.95;5.95;;;19.20;60.90;;;;;;5011235;28;20022;-71